DAL1087 KSLC-KLAX
Flight info
| Callsign | DAL1087 |
|---|---|
| Flight time | 1h 32m |
| Altitude | 36000 |
| Route | ARCHZ1 WINEN LAKRR HAKMN ANJLL4 |
| Aircraft | B738/M-SDE2E3FGHIRWXY/LB1 |
Departure
| Time | 2026-04-23 01:24 |
|---|---|
| Airport | Salt Lake City International Airport (KSLC) |
Arrival
| Time | 2026-04-23 02:56 |
|---|---|
| Airport | Los Angeles International Airport (KLAX) |
| Time | Latitude | Longitude | Altitude | Speed | Heading |
|---|---|---|---|---|---|
| 2026-04-23 00:55 | 40.78501 | -111.98645 | 4230 ft | 0 kts | 12° |
| 2026-04-23 01:10 | 40.78500 | -111.98645 | 4230 ft | 1 kts | 12° |
| 2026-04-23 01:10 | 40.78477 | -111.98655 | 4229 ft | 4 kts | 38° |
| 2026-04-23 01:10 | 40.78463 | -111.98681 | 4230 ft | 4 kts | 81° |
| 2026-04-23 01:11 | 40.78460 | -111.98709 | 4230 ft | 4 kts | 28° |
| 2026-04-23 01:11 | 40.78446 | -111.98707 | 4228 ft | 4 kts | 321° |
| 2026-04-23 01:11 | 40.78440 | -111.98684 | 4230 ft | 4 kts | 252° |
| 2026-04-23 01:11 | 40.78447 | -111.98651 | 4228 ft | 3 kts | 264° |
| 2026-04-23 01:12 | 40.78448 | -111.98647 | 4230 ft | 0 kts | 267° |
| 2026-04-23 01:15 | 40.78448 | -111.98648 | 4228 ft | 1 kts | 267° |
| 2026-04-23 01:15 | 40.78445 | -111.98686 | 4229 ft | 7 kts | 259° |
| 2026-04-23 01:15 | 40.78420 | -111.98753 | 4229 ft | 9 kts | 235° |
| 2026-04-23 01:16 | 40.78391 | -111.98821 | 4230 ft | 8 kts | 255° |
| 2026-04-23 01:16 | 40.78384 | -111.98897 | 4230 ft | 8 kts | 265° |
| 2026-04-23 01:16 | 40.78379 | -111.98971 | 4230 ft | 8 kts | 264° |
| 2026-04-23 01:16 | 40.78373 | -111.99052 | 4230 ft | 10 kts | 264° |
| 2026-04-23 01:17 | 40.78366 | -111.99152 | 4229 ft | 12 kts | 265° |
| 2026-04-23 01:17 | 40.78359 | -111.99262 | 4230 ft | 10 kts | 265° |
| 2026-04-23 01:17 | 40.78332 | -111.99325 | 4229 ft | 8 kts | 198° |
| 2026-04-23 01:17 | 40.78276 | -111.99324 | 4230 ft | 8 kts | 174° |
| 2026-04-23 01:18 | 40.78216 | -111.99317 | 4230 ft | 10 kts | 175° |
| 2026-04-23 01:18 | 40.78138 | -111.99307 | 4230 ft | 12 kts | 172° |
| 2026-04-23 01:18 | 40.78053 | -111.99284 | 4260 ft | 12 kts | 166° |
| 2026-04-23 01:18 | 40.77969 | -111.99266 | 4259 ft | 12 kts | 175° |
| 2026-04-23 01:19 | 40.77886 | -111.99256 | 4260 ft | 12 kts | 175° |
| 2026-04-23 01:19 | 40.77804 | -111.99246 | 4258 ft | 12 kts | 175° |
| 2026-04-23 01:19 | 40.77725 | -111.99237 | 4259 ft | 11 kts | 175° |
| 2026-04-23 01:19 | 40.77651 | -111.99213 | 4259 ft | 11 kts | 155° |
| 2026-04-23 01:20 | 40.77578 | -111.99193 | 4259 ft | 11 kts | 174° |
| 2026-04-23 01:20 | 40.77512 | -111.99211 | 4259 ft | 10 kts | 229° |
| 2026-04-23 01:20 | 40.77496 | -111.99300 | 4259 ft | 10 kts | 264° |
| 2026-04-23 01:20 | 40.77510 | -111.99385 | 4260 ft | 9 kts | 293° |
| 2026-04-23 01:21 | 40.77517 | -111.99413 | 4260 ft | 0 kts | 280° |
| 2026-04-23 01:22 | 40.77519 | -111.99434 | 4260 ft | 4 kts | 277° |
| 2026-04-23 01:22 | 40.77521 | -111.99479 | 4261 ft | 6 kts | 270° |
| 2026-04-23 01:22 | 40.77531 | -111.99528 | 4262 ft | 6 kts | 302° |
| 2026-04-23 01:22 | 40.77568 | -111.99554 | 4262 ft | 7 kts | 350° |
| 2026-04-23 01:23 | 40.77628 | -111.99562 | 4261 ft | 16 kts | 354° |
| 2026-04-23 01:23 | 40.77970 | -111.99603 | 4258 ft | 83 kts | 355° |
| 2026-04-23 01:23 | 40.78755 | -111.99696 | 4232 ft | 140 kts | 355° |
| 2026-04-23 01:23 | 40.79855 | -111.99835 | 4472 ft | 167 kts | 354° |
| 2026-04-23 01:24 | 40.80996 | -112.00023 | 5358 ft | 166 kts | 343° |
| 2026-04-23 01:24 | 40.82061 | -112.00774 | 5764 ft | 180 kts | 311° |
| 2026-04-23 01:24 | 40.82699 | -112.02255 | 6114 ft | 200 kts | 291° |
| 2026-04-23 01:24 | 40.83208 | -112.04056 | 6298 ft | 219 kts | 291° |
| 2026-04-23 01:25 | 40.83764 | -112.06050 | 6464 ft | 238 kts | 291° |
| 2026-04-23 01:25 | 40.84339 | -112.08163 | 6844 ft | 248 kts | 290° |
| 2026-04-23 01:25 | 40.84913 | -112.10290 | 7463 ft | 247 kts | 290° |
| 2026-04-23 01:25 | 40.85512 | -112.12398 | 8257 ft | 240 kts | 288° |
| 2026-04-23 01:26 | 40.85718 | -112.14585 | 8596 ft | 254 kts | 261° |
| 2026-04-23 01:26 | 40.84934 | -112.16731 | 9028 ft | 271 kts | 228° |
| 2026-04-23 01:26 | 40.83386 | -112.18211 | 9732 ft | 277 kts | 214° |
| 2026-04-23 01:26 | 40.81761 | -112.19616 | 10326 ft | 283 kts | 220° |
| 2026-04-23 01:27 | 40.80183 | -112.21334 | 10491 ft | 304 kts | 224° |
| 2026-04-23 01:27 | 40.78582 | -112.23284 | 10671 ft | 324 kts | 226° |
| 2026-04-23 01:27 | 40.76874 | -112.25359 | 10893 ft | 343 kts | 221° |
| 2026-04-23 01:27 | 40.74800 | -112.27005 | 11413 ft | 353 kts | 207° |
| 2026-04-23 01:28 | 40.72453 | -112.28021 | 12146 ft | 358 kts | 194° |
| 2026-04-23 01:28 | 40.70467 | -112.28450 | 12753 ft | 360 kts | 192° |
| 2026-04-23 01:28 | 40.67979 | -112.28910 | 13489 ft | 362 kts | 191° |
| 2026-04-23 01:28 | 40.65472 | -112.29373 | 14159 ft | 365 kts | 191° |
| 2026-04-23 01:29 | 40.62951 | -112.29860 | 14757 ft | 369 kts | 192° |
| 2026-04-23 01:29 | 40.60387 | -112.30375 | 15338 ft | 374 kts | 192° |
| 2026-04-23 01:29 | 40.57801 | -112.30901 | 15955 ft | 378 kts | 192° |
| 2026-04-23 01:29 | 40.55206 | -112.31568 | 16552 ft | 380 kts | 198° |
| 2026-04-23 01:30 | 40.52662 | -112.32570 | 17140 ft | 384 kts | 201° |
| 2026-04-23 01:30 | 40.50111 | -112.33654 | 17726 ft | 388 kts | 201° |
| 2026-04-23 01:30 | 40.47975 | -112.34569 | 18197 ft | 392 kts | 201° |
| 2026-04-23 01:30 | 40.45392 | -112.35664 | 18705 ft | 396 kts | 201° |
| 2026-04-23 01:31 | 40.42755 | -112.36766 | 19204 ft | 400 kts | 201° |
| 2026-04-23 01:31 | 40.40083 | -112.37869 | 19698 ft | 404 kts | 200° |
| 2026-04-23 01:31 | 40.37391 | -112.38970 | 20300 ft | 403 kts | 201° |
| 2026-04-23 01:31 | 40.34728 | -112.40053 | 21105 ft | 400 kts | 201° |
| 2026-04-23 01:32 | 40.32046 | -112.41146 | 21463 ft | 407 kts | 201° |
| 2026-04-23 01:32 | 40.29320 | -112.42256 | 21839 ft | 412 kts | 201° |
| 2026-04-23 01:32 | 40.26570 | -112.43374 | 22320 ft | 415 kts | 200° |
| 2026-04-23 01:32 | 40.23805 | -112.44497 | 22819 ft | 418 kts | 201° |
| 2026-04-23 01:33 | 40.21017 | -112.45628 | 23263 ft | 421 kts | 200° |
| 2026-04-23 01:33 | 40.18216 | -112.46821 | 23579 ft | 425 kts | 204° |
| 2026-04-23 01:33 | 40.15542 | -112.48481 | 23908 ft | 423 kts | 212° |
| 2026-04-23 01:33 | 40.13025 | -112.50285 | 25001 ft | 405 kts | 214° |
| 2026-04-23 01:34 | 40.10573 | -112.52058 | 25568 ft | 403 kts | 214° |
| 2026-04-23 01:34 | 40.08106 | -112.53841 | 25798 ft | 408 kts | 214° |
| 2026-04-23 01:34 | 40.05603 | -112.55635 | 26087 ft | 411 kts | 214° |
| 2026-04-23 01:34 | 40.03088 | -112.57420 | 26473 ft | 412 kts | 214° |
| 2026-04-23 01:35 | 40.00569 | -112.59195 | 26894 ft | 412 kts | 214° |
| 2026-04-23 01:35 | 39.98048 | -112.60965 | 27297 ft | 412 kts | 214° |
| 2026-04-23 01:35 | 39.95550 | -112.62716 | 27661 ft | 413 kts | 214° |
| 2026-04-23 01:35 | 39.93023 | -112.64484 | 28010 ft | 413 kts | 214° |
| 2026-04-23 01:36 | 39.90491 | -112.66253 | 28512 ft | 408 kts | 215° |
| 2026-04-23 01:36 | 39.88022 | -112.67971 | 29352 ft | 398 kts | 216° |
| 2026-04-23 01:36 | 39.85590 | -112.69667 | 29876 ft | 396 kts | 216° |
| 2026-04-23 01:36 | 39.83161 | -112.71365 | 30179 ft | 397 kts | 216° |
| 2026-04-23 01:37 | 39.80722 | -112.73071 | 30390 ft | 399 kts | 216° |
| 2026-04-23 01:37 | 39.78268 | -112.74784 | 30643 ft | 400 kts | 216° |
| 2026-04-23 01:37 | 39.76646 | -112.75915 | 30833 ft | 400 kts | 215° |
| 2026-04-23 01:37 | 39.74190 | -112.77624 | 31110 ft | 400 kts | 215° |
| 2026-04-23 01:38 | 39.71727 | -112.79336 | 31326 ft | 402 kts | 215° |
| 2026-04-23 01:38 | 39.69249 | -112.81053 | 31482 ft | 406 kts | 214° |
| 2026-04-23 01:38 | 39.66641 | -112.82537 | 31745 ft | 413 kts | 206° |
| 2026-04-23 01:38 | 39.63901 | -112.83618 | 32280 ft | 409 kts | 205° |
| 2026-04-23 01:39 | 39.61170 | -112.84679 | 32524 ft | 411 kts | 205° |
| 2026-04-23 01:39 | 39.58425 | -112.85758 | 32663 ft | 414 kts | 205° |
| 2026-04-23 01:39 | 39.55664 | -112.86850 | 32882 ft | 415 kts | 205° |
| 2026-04-23 01:39 | 39.52897 | -112.87945 | 33199 ft | 414 kts | 205° |
| 2026-04-23 01:40 | 39.50143 | -112.89037 | 33495 ft | 414 kts | 205° |
| 2026-04-23 01:40 | 39.47388 | -112.90131 | 33733 ft | 415 kts | 205° |
| 2026-04-23 01:40 | 39.44630 | -112.91227 | 33912 ft | 415 kts | 205° |
| 2026-04-23 01:40 | 39.41926 | -112.92296 | 34411 ft | 407 kts | 205° |
| 2026-04-23 01:41 | 39.39225 | -112.93364 | 34630 ft | 407 kts | 205° |
| 2026-04-23 01:41 | 39.36495 | -112.94450 | 34646 ft | 412 kts | 205° |
| 2026-04-23 01:41 | 39.33742 | -112.95544 | 34769 ft | 414 kts | 205° |
| 2026-04-23 01:41 | 39.30985 | -112.96637 | 34995 ft | 414 kts | 205° |
| 2026-04-23 01:42 | 39.28235 | -112.97724 | 35192 ft | 414 kts | 205° |
| 2026-04-23 01:42 | 39.25470 | -112.98816 | 35346 ft | 415 kts | 205° |
| 2026-04-23 01:42 | 39.22702 | -112.99908 | 35514 ft | 416 kts | 205° |
| 2026-04-23 01:42 | 39.19933 | -113.00999 | 35709 ft | 415 kts | 205° |
| 2026-04-23 01:43 | 39.17173 | -113.02085 | 35921 ft | 415 kts | 205° |
| 2026-04-23 01:43 | 39.14402 | -113.03177 | 35889 ft | 418 kts | 205° |
| 2026-04-23 01:43 | 39.08841 | -113.05364 | 35910 ft | 417 kts | 205° |
| 2026-04-23 01:44 | 39.03316 | -113.07528 | 35905 ft | 413 kts | 205° |
| 2026-04-23 01:44 | 38.97834 | -113.09675 | 35873 ft | 411 kts | 205° |
| 2026-04-23 01:45 | 38.92381 | -113.11809 | 35910 ft | 408 kts | 205° |
| 2026-04-23 01:45 | 38.86944 | -113.13939 | 35930 ft | 415 kts | 205° |
| 2026-04-23 01:46 | 38.81376 | -113.16116 | 35923 ft | 420 kts | 205° |
| 2026-04-23 01:46 | 38.75773 | -113.18296 | 35888 ft | 422 kts | 205° |
| 2026-04-23 01:47 | 38.70138 | -113.20483 | 35906 ft | 423 kts | 205° |
| 2026-04-23 01:47 | 38.64506 | -113.22667 | 35940 ft | 422 kts | 205° |
| 2026-04-23 01:48 | 38.58885 | -113.24843 | 35942 ft | 421 kts | 205° |
| 2026-04-23 01:48 | 38.53270 | -113.27015 | 35950 ft | 420 kts | 205° |
| 2026-04-23 01:49 | 38.47731 | -113.29152 | 35949 ft | 418 kts | 206° |
| 2026-04-23 01:49 | 38.42171 | -113.31298 | 35939 ft | 417 kts | 206° |
| 2026-04-23 01:50 | 38.36623 | -113.33434 | 35939 ft | 416 kts | 206° |
| 2026-04-23 01:50 | 38.31094 | -113.35559 | 35927 ft | 415 kts | 206° |
| 2026-04-23 01:51 | 38.25570 | -113.37679 | 35915 ft | 414 kts | 206° |
| 2026-04-23 01:51 | 38.20050 | -113.39794 | 35904 ft | 414 kts | 206° |
| 2026-04-23 01:52 | 38.14523 | -113.41910 | 35896 ft | 415 kts | 206° |
| 2026-04-23 01:52 | 38.09033 | -113.44007 | 35884 ft | 415 kts | 206° |
| 2026-04-23 01:53 | 38.03496 | -113.46118 | 35865 ft | 415 kts | 206° |
| 2026-04-23 01:53 | 37.97964 | -113.48225 | 35891 ft | 415 kts | 206° |
| 2026-04-23 01:54 | 37.92421 | -113.50340 | 35897 ft | 415 kts | 207° |
| 2026-04-23 01:54 | 37.86957 | -113.52667 | 35895 ft | 414 kts | 209° |
| 2026-04-23 01:55 | 37.81516 | -113.55086 | 35843 ft | 415 kts | 209° |
| 2026-04-23 01:55 | 37.76059 | -113.57490 | 35878 ft | 415 kts | 209° |
| 2026-04-23 01:56 | 37.70601 | -113.59870 | 35894 ft | 415 kts | 209° |
| 2026-04-23 01:56 | 37.65126 | -113.62243 | 35898 ft | 415 kts | 209° |
| 2026-04-23 01:57 | 37.59696 | -113.64592 | 35896 ft | 415 kts | 209° |
| 2026-04-23 01:57 | 37.54230 | -113.66951 | 35897 ft | 414 kts | 210° |
| 2026-04-23 01:58 | 37.48783 | -113.69300 | 35888 ft | 413 kts | 210° |
| 2026-04-23 01:58 | 37.43351 | -113.71638 | 35897 ft | 412 kts | 210° |
| 2026-04-23 01:59 | 37.37932 | -113.73969 | 35876 ft | 411 kts | 210° |
| 2026-04-23 01:59 | 37.32534 | -113.76285 | 35845 ft | 409 kts | 210° |
| 2026-04-23 02:00 | 37.27166 | -113.78585 | 35874 ft | 407 kts | 210° |
| 2026-04-23 02:00 | 37.21809 | -113.80880 | 35891 ft | 406 kts | 210° |
| 2026-04-23 02:01 | 37.16478 | -113.83158 | 35895 ft | 405 kts | 210° |
| 2026-04-23 02:01 | 37.11142 | -113.85437 | 35880 ft | 404 kts | 210° |
| 2026-04-23 02:02 | 37.05849 | -113.87694 | 35886 ft | 405 kts | 210° |
| 2026-04-23 02:02 | 37.00496 | -113.89975 | 35884 ft | 407 kts | 210° |
| 2026-04-23 02:03 | 36.95116 | -113.92262 | 35877 ft | 409 kts | 210° |
| 2026-04-23 02:03 | 36.89711 | -113.94554 | 35884 ft | 411 kts | 210° |
| 2026-04-23 02:04 | 36.84285 | -113.96852 | 35833 ft | 412 kts | 210° |
| 2026-04-23 02:04 | 36.78855 | -113.99147 | 35865 ft | 412 kts | 210° |
| 2026-04-23 02:05 | 36.73423 | -114.01441 | 35858 ft | 412 kts | 210° |
| 2026-04-23 02:05 | 36.67988 | -114.03731 | 35855 ft | 412 kts | 210° |
| 2026-04-23 02:06 | 36.62563 | -114.06015 | 35867 ft | 411 kts | 210° |
| 2026-04-23 02:06 | 36.57151 | -114.08286 | 35809 ft | 408 kts | 210° |
| 2026-04-23 02:07 | 36.51776 | -114.10546 | 35858 ft | 409 kts | 210° |
| 2026-04-23 02:07 | 36.46405 | -114.12802 | 35850 ft | 410 kts | 210° |
| 2026-04-23 02:08 | 36.40984 | -114.15071 | 35834 ft | 412 kts | 210° |
| 2026-04-23 02:08 | 36.35546 | -114.17342 | 35813 ft | 412 kts | 210° |
| 2026-04-23 02:09 | 36.30123 | -114.19605 | 35828 ft | 411 kts | 209° |
| 2026-04-23 02:09 | 36.24686 | -114.21873 | 35839 ft | 413 kts | 210° |
| 2026-04-23 02:10 | 36.19233 | -114.24143 | 35846 ft | 414 kts | 209° |
| 2026-04-23 02:10 | 36.13760 | -114.26417 | 35843 ft | 416 kts | 209° |
| 2026-04-23 02:11 | 36.11102 | -114.27739 | 35832 ft | 405 kts | 218° |
| 2026-04-23 02:11 | 36.08778 | -114.29469 | 35804 ft | 396 kts | 223° |
| 2026-04-23 02:11 | 36.04833 | -114.33598 | 35828 ft | 383 kts | 235° |
| 2026-04-23 02:12 | 36.01311 | -114.38517 | 35844 ft | 382 kts | 235° |
| 2026-04-23 02:12 | 35.97784 | -114.43452 | 35850 ft | 384 kts | 236° |
| 2026-04-23 02:13 | 35.94237 | -114.48384 | 35847 ft | 385 kts | 235° |
| 2026-04-23 02:13 | 35.90673 | -114.53319 | 35856 ft | 385 kts | 235° |
| 2026-04-23 02:14 | 35.87129 | -114.58215 | 35864 ft | 385 kts | 235° |
| 2026-04-23 02:14 | 35.84018 | -114.62506 | 35856 ft | 385 kts | 235° |
| 2026-04-23 02:15 | 35.78732 | -114.69785 | 35913 ft | 386 kts | 235° |
| 2026-04-23 02:16 | 35.75153 | -114.74704 | 35911 ft | 385 kts | 235° |
| 2026-04-23 02:16 | 35.71582 | -114.79606 | 35946 ft | 385 kts | 235° |
| 2026-04-23 02:17 | 35.68006 | -114.84507 | 35944 ft | 384 kts | 235° |
| 2026-04-23 02:17 | 35.64438 | -114.89390 | 35956 ft | 384 kts | 235° |
| 2026-04-23 02:18 | 35.60868 | -114.94271 | 35939 ft | 384 kts | 235° |
| 2026-04-23 02:18 | 35.57305 | -114.99135 | 35952 ft | 383 kts | 235° |
| 2026-04-23 02:19 | 35.53735 | -115.04003 | 35945 ft | 383 kts | 234° |
| 2026-04-23 02:19 | 35.50169 | -115.08846 | 35955 ft | 383 kts | 234° |
| 2026-04-23 02:20 | 35.46525 | -115.13625 | 35959 ft | 383 kts | 233° |
| 2026-04-23 02:20 | 35.42861 | -115.18379 | 35965 ft | 384 kts | 233° |
| 2026-04-23 02:21 | 35.39187 | -115.23156 | 35977 ft | 386 kts | 233° |
| 2026-04-23 02:21 | 35.35520 | -115.27926 | 35988 ft | 388 kts | 233° |
| 2026-04-23 02:22 | 35.31814 | -115.32744 | 35981 ft | 389 kts | 233° |
| 2026-04-23 02:22 | 35.28094 | -115.37572 | 35968 ft | 390 kts | 233° |
| 2026-04-23 02:23 | 35.24366 | -115.42404 | 35996 ft | 391 kts | 233° |
| 2026-04-23 02:23 | 35.20640 | -115.47228 | 35997 ft | 392 kts | 233° |
| 2026-04-23 02:24 | 35.16892 | -115.52072 | 35993 ft | 393 kts | 233° |
| 2026-04-23 02:24 | 35.13763 | -115.56112 | 35979 ft | 393 kts | 233° |
| 2026-04-23 02:25 | 35.10002 | -115.60946 | 35978 ft | 392 kts | 233° |
| 2026-04-23 02:25 | 35.06233 | -115.65761 | 35967 ft | 392 kts | 233° |
| 2026-04-23 02:26 | 35.02472 | -115.70561 | 35980 ft | 391 kts | 233° |
| 2026-04-23 02:26 | 34.98712 | -115.75357 | 35971 ft | 391 kts | 233° |
| 2026-04-23 02:27 | 34.94958 | -115.80140 | 35967 ft | 390 kts | 233° |
| 2026-04-23 02:27 | 34.91198 | -115.84924 | 35961 ft | 391 kts | 233° |
| 2026-04-23 02:28 | 34.87435 | -115.89706 | 35952 ft | 391 kts | 233° |
| 2026-04-23 02:28 | 34.83671 | -115.94482 | 35956 ft | 390 kts | 233° |
| 2026-04-23 02:29 | 34.79912 | -115.99246 | 35911 ft | 390 kts | 233° |
| 2026-04-23 02:29 | 34.76160 | -116.03997 | 35943 ft | 389 kts | 233° |
| 2026-04-23 02:30 | 34.72446 | -116.08729 | 35757 ft | 392 kts | 233° |
| 2026-04-23 02:30 | 34.70566 | -116.11127 | 35505 ft | 390 kts | 233° |
| 2026-04-23 02:30 | 34.68694 | -116.13510 | 35258 ft | 390 kts | 233° |
| 2026-04-23 02:30 | 34.66820 | -116.15894 | 35032 ft | 391 kts | 233° |
| 2026-04-23 02:31 | 34.64935 | -116.18291 | 34787 ft | 393 kts | 233° |
| 2026-04-23 02:31 | 34.63044 | -116.20693 | 34543 ft | 394 kts | 233° |
| 2026-04-23 02:31 | 34.61145 | -116.23104 | 34319 ft | 395 kts | 233° |
| 2026-04-23 02:31 | 34.59244 | -116.25515 | 33611 ft | 396 kts | 232° |
| 2026-04-23 02:32 | 34.57348 | -116.27915 | 33141 ft | 391 kts | 232° |
| 2026-04-23 02:32 | 34.55471 | -116.30288 | 32641 ft | 388 kts | 232° |
| 2026-04-23 02:32 | 34.53613 | -116.32636 | 32170 ft | 384 kts | 232° |
| 2026-04-23 02:32 | 34.51774 | -116.34962 | 31701 ft | 380 kts | 232° |
| 2026-04-23 02:33 | 34.49953 | -116.37264 | 31257 ft | 376 kts | 232° |
| 2026-04-23 02:33 | 34.48148 | -116.39547 | 30818 ft | 373 kts | 232° |
| 2026-04-23 02:33 | 34.46357 | -116.41811 | 30328 ft | 371 kts | 232° |
| 2026-04-23 02:33 | 34.44577 | -116.44056 | 29885 ft | 368 kts | 232° |
| 2026-04-23 02:34 | 34.42807 | -116.46286 | 29389 ft | 366 kts | 232° |
| 2026-04-23 02:34 | 34.41232 | -116.48650 | 28889 ft | 356 kts | 244° |
| 2026-04-23 02:34 | 34.40126 | -116.51300 | 28473 ft | 349 kts | 248° |
| 2026-04-23 02:34 | 34.39074 | -116.53939 | 28004 ft | 346 kts | 248° |
| 2026-04-23 02:35 | 34.38026 | -116.56545 | 27548 ft | 343 kts | 247° |
| 2026-04-23 02:35 | 34.36974 | -116.59134 | 27109 ft | 341 kts | 248° |
| 2026-04-23 02:35 | 34.35912 | -116.61727 | 26695 ft | 350 kts | 247° |
| 2026-04-23 02:35 | 34.34825 | -116.64372 | 26264 ft | 360 kts | 247° |
| 2026-04-23 02:36 | 34.33684 | -116.67133 | 25802 ft | 363 kts | 247° |
| 2026-04-23 02:36 | 34.32581 | -116.69826 | 25340 ft | 360 kts | 248° |
| 2026-04-23 02:36 | 34.31489 | -116.72536 | 24878 ft | 357 kts | 248° |
| 2026-04-23 02:36 | 34.30412 | -116.75222 | 24442 ft | 353 kts | 248° |
| 2026-04-23 02:37 | 34.29344 | -116.77885 | 24011 ft | 350 kts | 248° |
| 2026-04-23 02:37 | 34.28282 | -116.80529 | 23541 ft | 349 kts | 248° |
| 2026-04-23 02:37 | 34.27220 | -116.83167 | 23009 ft | 347 kts | 248° |
| 2026-04-23 02:37 | 34.26171 | -116.85770 | 22530 ft | 343 kts | 248° |
| 2026-04-23 02:38 | 34.25129 | -116.88354 | 22106 ft | 340 kts | 248° |
| 2026-04-23 02:38 | 34.24099 | -116.90905 | 21663 ft | 336 kts | 248° |
| 2026-04-23 02:38 | 34.23078 | -116.93433 | 21232 ft | 333 kts | 248° |
| 2026-04-23 02:38 | 34.22064 | -116.95939 | 20796 ft | 330 kts | 248° |
| 2026-04-23 02:39 | 34.21067 | -116.98425 | 20388 ft | 326 kts | 250° |
| 2026-04-23 02:39 | 34.20273 | -117.00978 | 20004 ft | 323 kts | 255° |
| 2026-04-23 02:39 | 34.19608 | -117.03562 | 19528 ft | 320 kts | 256° |
| 2026-04-23 02:39 | 34.18966 | -117.06108 | 19176 ft | 316 kts | 256° |
| 2026-04-23 02:40 | 34.18309 | -117.08636 | 18749 ft | 314 kts | 255° |
| 2026-04-23 02:40 | 34.17647 | -117.11114 | 18368 ft | 313 kts | 255° |
| 2026-04-23 02:40 | 34.16971 | -117.13613 | 17825 ft | 313 kts | 255° |
| 2026-04-23 02:40 | 34.16296 | -117.16097 | 17380 ft | 311 kts | 255° |
| 2026-04-23 02:41 | 34.15617 | -117.18570 | 16985 ft | 309 kts | 255° |
| 2026-04-23 02:41 | 34.14939 | -117.21033 | 16591 ft | 308 kts | 255° |
| 2026-04-23 02:41 | 34.14265 | -117.23477 | 16196 ft | 306 kts | 255° |
| 2026-04-23 02:41 | 34.13595 | -117.25910 | 15796 ft | 304 kts | 255° |
| 2026-04-23 02:42 | 34.12934 | -117.28308 | 15411 ft | 303 kts | 255° |
| 2026-04-23 02:42 | 34.12270 | -117.30721 | 14905 ft | 305 kts | 255° |
| 2026-04-23 02:42 | 34.11610 | -117.33110 | 14614 ft | 300 kts | 255° |
| 2026-04-23 02:42 | 34.10957 | -117.35471 | 14241 ft | 299 kts | 255° |
| 2026-04-23 02:43 | 34.10314 | -117.37829 | 13854 ft | 298 kts | 256° |
| 2026-04-23 02:43 | 34.09711 | -117.40228 | 13460 ft | 299 kts | 256° |
| 2026-04-23 02:43 | 34.09118 | -117.42635 | 13074 ft | 302 kts | 256° |
| 2026-04-23 02:43 | 34.08512 | -117.45079 | 12694 ft | 305 kts | 256° |
| 2026-04-23 02:44 | 34.07897 | -117.47539 | 12312 ft | 307 kts | 256° |
| 2026-04-23 02:44 | 34.07290 | -117.49981 | 11929 ft | 300 kts | 257° |
| 2026-04-23 02:44 | 34.06845 | -117.52372 | 11631 ft | 290 kts | 262° |
| 2026-04-23 02:44 | 34.06499 | -117.54767 | 11343 ft | 289 kts | 263° |
| 2026-04-23 02:45 | 34.06170 | -117.57174 | 11052 ft | 290 kts | 263° |
| 2026-04-23 02:45 | 34.05843 | -117.59550 | 10752 ft | 286 kts | 262° |
| 2026-04-23 02:45 | 34.05511 | -117.61913 | 10460 ft | 283 kts | 262° |
| 2026-04-23 02:45 | 34.05179 | -117.64240 | 10169 ft | 280 kts | 262° |
| 2026-04-23 02:46 | 34.04846 | -117.66544 | 9915 ft | 276 kts | 262° |
| 2026-04-23 02:46 | 34.04522 | -117.68758 | 9921 ft | 260 kts | 262° |
| 2026-04-23 02:46 | 34.04209 | -117.70886 | 9405 ft | 263 kts | 262° |
| 2026-04-23 02:46 | 34.03893 | -117.73032 | 9061 ft | 258 kts | 262° |
| 2026-04-23 02:47 | 34.03583 | -117.75132 | 8790 ft | 253 kts | 262° |
| 2026-04-23 02:47 | 34.03273 | -117.77227 | 8532 ft | 255 kts | 261° |
| 2026-04-23 02:47 | 34.02959 | -117.79345 | 8264 ft | 257 kts | 261° |
| 2026-04-23 02:47 | 34.02642 | -117.81476 | 8001 ft | 259 kts | 261° |
| 2026-04-23 02:48 | 34.02322 | -117.83629 | 7733 ft | 261 kts | 261° |
| 2026-04-23 02:48 | 34.01999 | -117.85789 | 7444 ft | 261 kts | 261° |
| 2026-04-23 02:48 | 34.01678 | -117.87934 | 7177 ft | 259 kts | 261° |
| 2026-04-23 02:48 | 34.01361 | -117.90051 | 6912 ft | 257 kts | 261° |
| 2026-04-23 02:49 | 34.01044 | -117.92167 | 6647 ft | 256 kts | 261° |
| 2026-04-23 02:49 | 34.00728 | -117.94268 | 6377 ft | 255 kts | 261° |
| 2026-04-23 02:49 | 34.00413 | -117.96362 | 6099 ft | 253 kts | 261° |
| 2026-04-23 02:49 | 34.00100 | -117.98446 | 5823 ft | 252 kts | 260° |
| 2026-04-23 02:50 | 33.99789 | -118.00510 | 5573 ft | 249 kts | 261° |
| 2026-04-23 02:50 | 33.99479 | -118.02563 | 5309 ft | 250 kts | 261° |
| 2026-04-23 02:50 | 33.99168 | -118.04627 | 5069 ft | 251 kts | 261° |
| 2026-04-23 02:50 | 33.98859 | -118.06675 | 4806 ft | 253 kts | 261° |
| 2026-04-23 02:51 | 33.98546 | -118.08739 | 4530 ft | 253 kts | 261° |
| 2026-04-23 02:51 | 33.98231 | -118.10817 | 4259 ft | 251 kts | 261° |
| 2026-04-23 02:51 | 33.97941 | -118.12911 | 3990 ft | 249 kts | 264° |
| 2026-04-23 02:51 | 33.97763 | -118.14952 | 3746 ft | 247 kts | 266° |
| 2026-04-23 02:52 | 33.97604 | -118.17009 | 3500 ft | 246 kts | 265° |
| 2026-04-23 02:52 | 33.97408 | -118.19056 | 3238 ft | 245 kts | 264° |
| 2026-04-23 02:52 | 33.97199 | -118.21052 | 3127 ft | 233 kts | 264° |
| 2026-04-23 02:52 | 33.96999 | -118.22947 | 2923 ft | 223 kts | 264° |
| 2026-04-23 02:53 | 33.96809 | -118.24768 | 2639 ft | 217 kts | 264° |
| 2026-04-23 02:53 | 33.96625 | -118.26538 | 2355 ft | 207 kts | 263° |
| 2026-04-23 02:53 | 33.96451 | -118.28205 | 2076 ft | 194 kts | 264° |
| 2026-04-23 02:53 | 33.96288 | -118.29772 | 1830 ft | 182 kts | 264° |
| 2026-04-23 02:54 | 33.96137 | -118.31233 | 1589 ft | 169 kts | 263° |
| 2026-04-23 02:54 | 33.95998 | -118.32577 | 1389 ft | 155 kts | 263° |
| 2026-04-23 02:54 | 33.95871 | -118.33800 | 1178 ft | 140 kts | 263° |
| 2026-04-23 02:54 | 33.95749 | -118.34971 | 980 ft | 142 kts | 263° |
| 2026-04-23 02:55 | 33.95616 | -118.36146 | 845 ft | 141 kts | 264° |
| 2026-04-23 02:55 | 33.95500 | -118.37320 | 633 ft | 141 kts | 264° |
| 2026-04-23 02:55 | 33.95382 | -118.38490 | 444 ft | 141 kts | 264° |
| 2026-04-23 02:55 | 33.95271 | -118.39631 | 246 ft | 135 kts | 261° |
| 2026-04-23 02:56 | 33.95152 | -118.40748 | 98 ft | 127 kts | 262° |
| 2026-04-23 02:56 | 33.95059 | -118.41685 | 94 ft | 93 kts | 263° |
| 2026-04-23 02:56 | 33.94997 | -118.42279 | 93 ft | 51 kts | 263° |
| 2026-04-23 02:56 | 33.94940 | -118.42532 | 92 ft | 11 kts | 244° |
| 2026-04-23 02:57 | 33.94923 | -118.42567 | 93 ft | 8 kts | 238° |
| 2026-04-23 02:57 | 33.94889 | -118.42625 | 97 ft | 8 kts | 233° |
| 2026-04-23 02:57 | 33.94853 | -118.42677 | 95 ft | 8 kts | 225° |
| 2026-04-23 02:57 | 33.94812 | -118.42721 | 96 ft | 8 kts | 221° |
| 2026-04-23 02:58 | 33.94757 | -118.42761 | 97 ft | 11 kts | 202° |
| 2026-04-23 02:58 | 33.94681 | -118.42781 | 97 ft | 9 kts | 179° |
| 2026-04-23 02:58 | 33.94655 | -118.42778 | 95 ft | 0 kts | 174° |
| 2026-04-23 02:59 | 33.94647 | -118.42774 | 94 ft | 6 kts | 150° |
| 2026-04-23 02:59 | 33.94634 | -118.42707 | 94 ft | 10 kts | 85° |
| 2026-04-23 02:59 | 33.94639 | -118.42658 | 94 ft | 9 kts | 82° |
| 2026-04-23 02:59 | 33.94645 | -118.42608 | 94 ft | 9 kts | 83° |
| 2026-04-23 03:00 | 33.94654 | -118.42520 | 93 ft | 11 kts | 83° |
| 2026-04-23 03:00 | 33.94663 | -118.42423 | 94 ft | 12 kts | 84° |
| 2026-04-23 03:00 | 33.94673 | -118.42328 | 93 ft | 11 kts | 82° |
| 2026-04-23 03:00 | 33.94684 | -118.42222 | 95 ft | 15 kts | 83° |
| 2026-04-23 03:01 | 33.94698 | -118.42090 | 92 ft | 17 kts | 83° |
| 2026-04-23 03:01 | 33.94711 | -118.41955 | 92 ft | 16 kts | 83° |
| 2026-04-23 03:01 | 33.94724 | -118.41825 | 92 ft | 15 kts | 83° |
| 2026-04-23 03:01 | 33.94736 | -118.41700 | 92 ft | 15 kts | 83° |
| 2026-04-23 03:02 | 33.94748 | -118.41581 | 96 ft | 14 kts | 83° |
| 2026-04-23 03:02 | 33.94760 | -118.41466 | 95 ft | 13 kts | 83° |
| 2026-04-23 03:02 | 33.94783 | -118.41361 | 93 ft | 13 kts | 77° |
| 2026-04-23 03:02 | 33.94795 | -118.41255 | 93 ft | 13 kts | 83° |
| 2026-04-23 03:03 | 33.94806 | -118.41151 | 95 ft | 12 kts | 83° |
| 2026-04-23 03:03 | 33.94816 | -118.41050 | 94 ft | 12 kts | 83° |
| 2026-04-23 03:03 | 33.94827 | -118.40952 | 96 ft | 11 kts | 83° |
| 2026-04-23 03:03 | 33.94792 | -118.40884 | 95 ft | 10 kts | 154° |
| 2026-04-23 03:04 | 33.94760 | -118.40821 | 95 ft | 9 kts | 89° |
| 2026-04-23 03:04 | 33.94764 | -118.40749 | 94 ft | 4 kts | 103° |
| 2026-04-23 03:04 | 33.94750 | -118.40736 | 95 ft | 5 kts | 160° |
| 2026-04-23 03:04 | 33.94727 | -118.40739 | 93 ft | 2 kts | 187° |
| 2026-04-23 03:05 | 33.94712 | -118.40742 | 92 ft | 1 kts | 192° |
| 2026-04-23 03:05 | 33.94711 | -118.40743 | 92 ft | 0 kts | 192° |